createdAt,value
2023-03-25T00:01:01.907Z,0
2023-03-25T00:06:26.876Z,0
2023-03-25T00:11:49.970Z,0
2023-03-25T00:17:59.724Z,0
2023-03-25T00:23:23.074Z,0
2023-03-25T00:28:49.035Z,0
2023-03-25T00:34:14.709Z,0
2023-03-25T00:40:35.659Z,0
2023-03-25T00:45:58.750Z,0
2023-03-25T00:51:21.135Z,0
2023-03-25T00:56:44.203Z,0
2023-03-25T01:02:09.457Z,0
2023-03-25T01:07:32.265Z,0
2023-03-25T01:12:54.973Z,0
2023-03-25T01:18:17.202Z,0
2023-03-25T01:23:39.569Z,0
2023-03-25T01:29:11.145Z,0
2023-03-25T01:34:33.841Z,0
2023-03-25T01:40:07.847Z,0
2023-03-25T01:45:30.969Z,0
2023-03-25T01:50:53.538Z,0
2023-03-25T01:56:23.445Z,0
2023-03-25T02:01:45.952Z,0
2023-03-25T02:07:08.643Z,0
2023-03-25T02:12:34.196Z,0
2023-03-25T02:17:57.058Z,0
2023-03-25T02:23:19.684Z,0
2023-03-25T02:28:42.188Z,0
2023-03-25T02:34:04.743Z,0
2023-03-25T02:39:27.317Z,0
2023-03-25T02:44:49.689Z,0
2023-03-25T02:50:12.462Z,0
2023-03-25T02:55:35.218Z,0
2023-03-25T03:00:57.945Z,0
2023-03-25T03:06:28.052Z,0
2023-03-25T03:11:53.681Z,0
2023-03-25T03:17:16.452Z,0
2023-03-25T03:22:39.306Z,0
2023-03-25T03:28:01.879Z,0
2023-03-25T03:33:24.132Z,0
2023-03-25T03:38:47.113Z,0
2023-03-25T03:44:09.819Z,0
2023-03-25T03:49:32.308Z,0
2023-03-25T03:54:55.044Z,0
2023-03-25T04:00:20.546Z,0
2023-03-25T04:05:43.072Z,0
2023-03-25T04:11:05.644Z,0
2023-03-25T04:16:30.591Z,0
2023-03-25T04:21:53.374Z,0
2023-03-25T04:27:16.065Z,0
2023-03-25T04:32:38.675Z,0
2023-03-25T04:38:08.845Z,0
2023-03-25T04:43:53.209Z,0
2023-03-25T04:49:15.810Z,0
2023-03-25T04:54:38.216Z,0
2023-03-25T05:00:00.988Z,0
2023-03-25T05:11:09.668Z,0
2023-03-25T05:16:33.053Z,0
2023-03-25T05:21:55.951Z,0
2023-03-25T05:27:39.217Z,14.4
2023-03-25T05:33:02.562Z,16.6
2023-03-25T05:38:25.601Z,17.8
2023-03-25T05:43:48.728Z,20.8
2023-03-25T05:49:11.856Z,15.6
2023-03-25T05:54:44.777Z,17.4
2023-03-25T06:00:07.248Z,62.4
2023-03-25T06:11:20.627Z,129.8
2023-03-25T06:16:43.456Z,113.6
2023-03-25T06:22:08.654Z,39.6
2023-03-25T06:27:52.102Z,40.4
2023-03-25T06:33:43.920Z,38.8
2023-03-25T06:39:06.951Z,54.8
2023-03-25T06:44:29.590Z,134.3
2023-03-25T06:49:53.297Z,181.2
2023-03-25T06:55:16.175Z,164.1
2023-03-25T07:00:39.087Z,141.5
2023-03-25T07:06:01.731Z,137.4
2023-03-25T07:11:24.733Z,146.1
2023-03-25T07:16:58.242Z,99
2023-03-25T07:22:32.020Z,80.1
2023-03-25T07:27:54.853Z,84.7
2023-03-25T07:33:18.031Z,98.1
2023-03-25T07:38:40.182Z,99.8
2023-03-25T07:44:02.637Z,100.7
2023-03-25T07:49:25.429Z,447.3
2023-03-25T07:54:51.359Z,283.3
2023-03-25T08:00:13.873Z,256.5
2023-03-25T08:05:37.256Z,326.7
2023-03-25T08:10:59.077Z,660
2023-03-25T08:16:23.723Z,1108.3
2023-03-25T08:21:46.969Z,396.5
2023-03-25T08:27:16.911Z,435.8
2023-03-25T08:38:08.094Z,311.3
2023-03-25T08:43:30.344Z,278.9
2023-03-25T08:48:56.728Z,387.2
2023-03-25T08:54:18.982Z,504
2023-03-25T08:59:41.436Z,1008.7
2023-03-25T09:05:08.640Z,415.3
2023-03-25T09:10:32.534Z,584.6
2023-03-25T09:15:56.120Z,1546.8
2023-03-25T09:21:19.319Z,375.1
2023-03-25T09:26:44.174Z,341.3
2023-03-25T09:32:06.934Z,2018
2023-03-25T09:37:29.945Z,2293
2023-03-25T09:42:53.394Z,463.1
2023-03-25T09:48:14.724Z,230.5
2023-03-25T09:53:36.204Z,183.5
2023-03-25T09:58:59.303Z,264.1
2023-03-25T10:04:25.419Z,1461.9
2023-03-25T10:09:50.763Z,1943.1
2023-03-25T10:15:13.985Z,865.1
2023-03-25T10:20:37.514Z,282.5
2023-03-25T10:25:58.270Z,249.2
2023-03-25T10:31:19.824Z,280.8
2023-03-25T10:36:41.615Z,419.3
2023-03-25T10:42:05.267Z,478.6
2023-03-25T10:47:30.252Z,492.5
2023-03-25T10:52:55.696Z,596.5
2023-03-25T10:58:36.387Z,449.4
2023-03-25T11:03:57.850Z,846
2023-03-25T11:09:21.764Z,364.8
2023-03-25T11:14:43.998Z,1259
2023-03-25T11:20:08.857Z,1366.6
2023-03-25T11:25:30.150Z,914.8
2023-03-25T11:30:52.935Z,2550
2023-03-25T11:36:18.531Z,2304.2
2023-03-25T11:41:41.299Z,2105.8
2023-03-25T11:47:04.956Z,799
2023-03-25T11:52:27.392Z,2066.2
2023-03-25T11:57:50.269Z,689.9
2023-03-25T12:03:11.924Z,883.5
2023-03-25T12:08:36.994Z,1922.7
2023-03-25T12:13:59.727Z,640.4
2023-03-25T12:19:20.589Z,735.7
2023-03-25T12:24:41.844Z,648.3
2023-03-25T12:35:44.312Z,907.2
2023-03-25T12:41:09.644Z,588.9
2023-03-25T12:46:30.146Z,529.4
2023-03-25T12:51:51.529Z,252.7
2023-03-25T12:57:13.886Z,283.4
2023-03-25T13:02:36.888Z,209.8
2023-03-25T13:08:03.067Z,91.6
2023-03-25T13:13:25.132Z,45.6
2023-03-25T13:18:47.699Z,52.7
2023-03-25T13:24:12.863Z,118
2023-03-25T13:29:35.851Z,132.3
2023-03-25T13:34:58.773Z,78
2023-03-25T13:40:21.237Z,86.2
2023-03-25T13:45:44.518Z,779.6
2023-03-25T13:51:08.098Z,424
2023-03-25T13:56:32.190Z,576.4
2023-03-25T14:01:57.718Z,1786.5
2023-03-25T14:07:26.663Z,782.5
2023-03-25T14:12:45.864Z,211.1
2023-03-25T14:18:07.957Z,365.9
2023-03-25T14:23:44.725Z,289.9
2023-03-25T14:29:06.696Z,576.1
2023-03-25T14:34:38.255Z,166.2
2023-03-25T14:40:02.831Z,176.6
2023-03-25T14:45:31.910Z,557.5
2023-03-25T14:50:56.991Z,425.3
2023-03-25T14:56:22.359Z,1665.2
2023-03-25T15:01:48.382Z,424.9
2023-03-25T15:07:09.337Z,167.1
2023-03-25T15:12:31.598Z,408.9
2023-03-25T15:17:54.714Z,316.2
2023-03-25T15:23:16.426Z,199.1
2023-03-25T15:28:41.834Z,168
2023-03-25T15:34:03.984Z,130.8
2023-03-25T15:39:44.062Z,162.1
2023-03-25T15:45:06.728Z,114.6
2023-03-25T15:50:29.174Z,151.5
2023-03-25T15:55:51.943Z,93.6
2023-03-25T16:01:14.740Z,82.5
2023-03-25T16:06:40.910Z,63
2023-03-25T16:12:06.680Z,218.6
2023-03-25T16:17:29.684Z,97.8
2023-03-25T16:22:52.386Z,58.4
2023-03-25T16:28:23.017Z,81.4
2023-03-25T16:33:46.001Z,130.2
2023-03-25T16:39:09.387Z,98.9
2023-03-25T16:44:33.148Z,114.7
2023-03-25T16:49:55.617Z,36.4
2023-03-25T16:55:41.641Z,76.2
2023-03-25T17:01:07.353Z,146.7
2023-03-25T17:06:29.958Z,80.4
2023-03-25T17:11:52.396Z,34.2
2023-03-25T17:17:15.166Z,25.3
2023-03-25T17:22:37.833Z,22.2
2023-03-25T17:28:00.126Z,19.9
2023-03-25T17:33:32.282Z,19.7
2023-03-25T17:38:55.207Z,18.5
2023-03-25T17:44:17.601Z,16.1
2023-03-25T17:49:40.170Z,14
2023-03-25T17:55:02.782Z,6
2023-03-25T18:00:25.279Z,2
2023-03-25T18:05:47.885Z,0
2023-03-25T18:11:10.591Z,0
2023-03-25T18:16:32.980Z,0
2023-03-25T18:22:19.550Z,0
2023-03-25T18:27:46.868Z,0
2023-03-25T18:33:11.857Z,0
2023-03-25T18:38:39.904Z,0
2023-03-25T18:44:06.702Z,0
2023-03-25T18:49:31.004Z,0
2023-03-25T18:54:57.602Z,0
2023-03-25T19:00:26.226Z,0
2023-03-25T19:05:54.207Z,0
2023-03-25T19:11:22.621Z,0
2023-03-25T19:17:03.484Z,0
2023-03-25T19:22:30.168Z,0
2023-03-25T19:27:53.319Z,0
2023-03-25T19:33:16.428Z,0
2023-03-25T19:38:41.813Z,0
2023-03-25T19:44:05.304Z,0
2023-03-25T19:49:40.443Z,0
2023-03-25T19:55:03.937Z,0
2023-03-25T20:00:28.583Z,0
2023-03-25T20:05:57.958Z,0
2023-03-25T20:11:23.843Z,0
2023-03-25T20:16:48.424Z,0
2023-03-25T20:22:29.084Z,0
2023-03-25T20:27:55.047Z,0
2023-03-25T20:33:35.102Z,0
2023-03-25T20:39:01.002Z,0
2023-03-25T20:44:42.871Z,0
2023-03-25T20:50:08.504Z,0
2023-03-25T20:55:30.848Z,0
2023-03-25T21:00:53.714Z,0
2023-03-25T21:06:28.058Z,0
2023-03-25T21:11:51.436Z,0
2023-03-25T21:17:18.605Z,0
2023-03-25T21:22:45.359Z,0
2023-03-25T21:28:08.710Z,0
2023-03-25T21:33:37.555Z,0
2023-03-25T21:39:11.866Z,0
2023-03-25T21:44:38.818Z,0
2023-03-25T21:50:02.783Z,0
2023-03-25T21:55:47.298Z,0
2023-03-25T22:01:12.399Z,0
2023-03-25T22:06:35.087Z,0
2023-03-25T22:11:58.879Z,0
2023-03-25T22:17:25.222Z,0
2023-03-25T22:22:55.000Z,0
2023-03-25T22:28:17.661Z,0
2023-03-25T22:33:44.063Z,0
2023-03-25T22:39:09.123Z,0
2023-03-25T22:44:32.068Z,0
2023-03-25T22:49:54.681Z,0
2023-03-25T22:55:25.885Z,0
2023-03-25T23:00:48.492Z,0
2023-03-25T23:06:13.829Z,0
2023-03-25T23:11:38.365Z,0
2023-03-25T23:17:01.641Z,0
2023-03-25T23:22:24.833Z,0
2023-03-25T23:27:50.355Z,0
2023-03-25T23:33:35.092Z,0
2023-03-25T23:39:00.860Z,0
2023-03-25T23:44:24.876Z,0
